createdAt,value
2023-05-08T00:00:59.085Z,102337.34
2023-05-08T00:03:26.321Z,102334.75
2023-05-08T00:05:55.306Z,102340.09
2023-05-08T00:08:21.760Z,102338.47
2023-05-08T00:10:48.117Z,102332.28
2023-05-08T00:13:14.684Z,102332.34
2023-05-08T00:15:41.280Z,102333.28
2023-05-08T00:18:07.725Z,102332.44
2023-05-08T00:20:34.457Z,102337.88
2023-05-08T00:23:00.939Z,102338.72
2023-05-08T00:25:27.609Z,102335.28
2023-05-08T00:27:54.000Z,102330.09
2023-05-08T00:30:20.489Z,102336.41
2023-05-08T00:32:47.021Z,102337.34
2023-05-08T00:35:13.502Z,102338.31
2023-05-08T00:37:41.088Z,102331.25
2023-05-08T00:40:09.304Z,102327.72
2023-05-08T00:42:35.702Z,102326.88
2023-05-08T00:45:03.103Z,102326.00
2023-05-08T00:47:31.507Z,102330.47
2023-05-08T00:49:59.646Z,102328.75
2023-05-08T00:52:28.189Z,102330.47
2023-05-08T00:54:54.985Z,102334.97
2023-05-08T00:57:22.458Z,102333.31
2023-05-08T00:59:49.930Z,102331.50
2023-05-08T01:02:16.973Z,102332.44
2023-05-08T01:04:44.811Z,102333.41
2023-05-08T01:07:11.448Z,102329.88
2023-05-08T01:09:37.858Z,102323.66
2023-05-08T01:12:23.920Z,102334.44
2023-05-08T01:15:05.378Z,102329.09
2023-05-08T01:17:53.950Z,102335.31
2023-05-08T01:20:37.623Z,102332.63
2023-05-08T01:23:21.978Z,102337.97
2023-05-08T01:26:36.487Z,102337.22
2023-05-08T01:29:25.416Z,102334.44
2023-05-08T01:32:05.959Z,102344.28
2023-05-08T01:34:35.033Z,102336.34
2023-05-08T01:37:08.480Z,102343.41
2023-05-08T01:39:43.928Z,102335.50
2023-05-08T01:42:22.452Z,102335.50
2023-05-08T01:44:56.467Z,102328.34
2023-05-08T01:47:27.037Z,102323.84
2023-05-08T01:50:14.405Z,102326.53
2023-05-08T01:52:49.698Z,102331.94
2023-05-08T01:55:32.573Z,102324.81
2023-05-08T01:58:00.926Z,102324.00
2023-05-08T02:00:28.533Z,102330.22
2023-05-08T02:02:56.314Z,102332.03
2023-05-08T02:05:24.584Z,102341.84
2023-05-08T02:07:52.202Z,102343.66
2023-05-08T02:10:19.950Z,102344.59
2023-05-08T02:12:47.526Z,102346.31
2023-05-08T02:15:16.235Z,102347.28
2023-05-08T02:17:46.151Z,102342.88
2023-05-08T02:20:15.081Z,102340.22
2023-05-08T02:22:44.500Z,102342.88
2023-05-08T02:25:14.500Z,102335.72
2023-05-08T02:27:46.658Z,102334.88
2023-05-08T02:30:17.794Z,102331.34
2023-05-08T02:32:45.730Z,102335.81
2023-05-08T02:35:14.780Z,102342.13
2023-05-08T02:37:51.550Z,102341.16
2023-05-08T02:40:19.087Z,102334.97
2023-05-08T02:42:46.737Z,102337.72
2023-05-08T02:45:13.932Z,102333.31
2023-05-08T02:47:58.714Z,102333.41
2023-05-08T02:50:56.560Z,102336.16
2023-05-08T02:53:34.312Z,102333.50
2023-05-08T02:56:09.857Z,102336.16
2023-05-08T02:58:43.500Z,102329.88
2023-05-08T03:01:41.718Z,102327.19
2023-05-08T03:04:11.000Z,102321.88
2023-05-08T03:06:41.577Z,102319.19
2023-05-08T03:09:14.993Z,102320.06
2023-05-08T03:11:43.577Z,102321.88
2023-05-08T03:14:12.444Z,102312.13
2023-05-08T03:16:42.896Z,102316.63
2023-05-08T03:19:26.639Z,102319.28
2023-05-08T03:21:55.642Z,102318.34
2023-05-08T03:24:25.237Z,102323.69
2023-05-08T03:26:52.162Z,102322.81
2023-05-08T03:29:19.685Z,102320.91
2023-05-08T03:31:47.389Z,102320.84
2023-05-08T03:34:15.910Z,102319.91
2023-05-08T03:36:42.527Z,102337.63
2023-05-08T03:39:09.375Z,102320.75
2023-05-08T03:41:36.041Z,102316.28
2023-05-08T03:44:03.585Z,102318.00
2023-05-08T03:46:31.638Z,102319.72
2023-05-08T03:49:00.245Z,102319.63
2023-05-08T03:51:28.341Z,102316.09
2023-05-08T03:53:54.914Z,102320.56
2023-05-08T03:56:21.527Z,102327.72
2023-05-08T03:58:56.783Z,102331.34
2023-05-08T04:01:41.864Z,102326.00
2023-05-08T04:04:27.753Z,102320.66
2023-05-08T04:07:03.560Z,102321.63
2023-05-08T04:09:54.827Z,102323.53
2023-05-08T04:12:40.640Z,102322.63
2023-05-08T04:15:10.493Z,102324.44
2023-05-08T04:17:49.674Z,102315.56
2023-05-08T04:20:20.960Z,102319.09
2023-05-08T04:22:50.362Z,102320.84
2023-05-08T04:25:18.373Z,102326.19
2023-05-08T04:27:46.027Z,102323.53
2023-05-08T04:30:13.188Z,102316.38
2023-05-08T04:32:41.722Z,102314.56
2023-05-08T04:35:09.405Z,102320.75
2023-05-08T04:37:35.892Z,102319.81
2023-05-08T04:40:04.857Z,102315.34
2023-05-08T04:42:36.394Z,102317.13
2023-05-08T04:45:03.852Z,102328.78
2023-05-08T04:47:30.934Z,102318.84
2023-05-08T04:49:57.742Z,102330.50
2023-05-08T04:52:25.572Z,102326.09
2023-05-08T04:54:52.030Z,102327.06
2023-05-08T04:57:19.412Z,102325.31
2023-05-08T04:59:45.791Z,102320.91
2023-05-08T05:02:12.312Z,102319.09
2023-05-08T05:04:38.744Z,102325.41
2023-05-08T05:07:05.882Z,102316.53
2023-05-08T05:09:36.854Z,102322.81
2023-05-08T05:12:04.404Z,102327.28
2023-05-08T05:14:31.125Z,102326.44
2023-05-08T05:16:58.043Z,102322.81
2023-05-08T05:19:24.893Z,102322.25
2023-05-08T05:21:51.317Z,102328.00
2023-05-08T05:24:17.848Z,102326.41
2023-05-08T05:26:44.261Z,102328.53
2023-05-08T05:29:11.159Z,102337.00
2023-05-08T05:31:37.662Z,102343.25
2023-05-08T05:36:31.156Z,102343.91
2023-05-08T05:38:58.327Z,102333.94
2023-05-08T05:41:25.765Z,102335.75
2023-05-08T05:43:52.555Z,102339.41
2023-05-08T05:46:19.252Z,102340.47
2023-05-08T05:48:45.922Z,102344.19
2023-05-08T05:51:12.942Z,102354.34
2023-05-08T05:53:39.356Z,102348.50
2023-05-08T05:56:06.595Z,102344.50
2023-05-08T05:58:33.388Z,102351.22
2023-05-08T06:01:02.979Z,102352.72
2023-05-08T06:03:30.272Z,102342.59
2023-05-08T06:05:56.841Z,102337.03
2023-05-08T06:08:23.317Z,102340.38
2023-05-08T06:10:49.726Z,102341.16
2023-05-08T06:13:16.469Z,102350.03
2023-05-08T06:15:43.152Z,102342.88
2023-05-08T06:18:09.633Z,102347.19
2023-05-08T06:20:38.575Z,102344.34
2023-05-08T06:23:05.953Z,102342.34
2023-05-08T06:25:32.313Z,102340.53
2023-05-08T06:27:58.714Z,102342.25
2023-05-08T06:30:25.304Z,102341.41
2023-05-08T06:32:51.804Z,102343.13
2023-05-08T06:35:19.424Z,102343.03
2023-05-08T06:37:46.566Z,102343.81
2023-05-08T06:40:13.815Z,102346.41
2023-05-08T06:42:40.988Z,102344.50
2023-05-08T06:45:08.951Z,102343.53
2023-05-08T06:47:35.415Z,102336.38
2023-05-08T06:50:01.908Z,102339.91
2023-05-08T06:52:28.287Z,102346.13
2023-05-08T06:54:54.704Z,102339.81
2023-05-08T06:57:21.155Z,102345.09
2023-05-08T06:59:47.572Z,102342.44
2023-05-08T07:02:16.008Z,102337.16
2023-05-08T07:04:44.132Z,102334.47
2023-05-08T07:07:11.489Z,102338.97
2023-05-08T07:09:37.917Z,102339.91
2023-05-08T07:12:04.554Z,102342.09
2023-05-08T07:14:31.265Z,102334.09
2023-05-08T07:16:58.570Z,102333.59
2023-05-08T07:19:25.254Z,102333.16
2023-05-08T07:21:51.694Z,102331.16
2023-05-08T07:24:18.118Z,102327.19
2023-05-08T07:26:44.699Z,102324.88
2023-05-08T07:29:11.056Z,102329.50
2023-05-08T07:31:40.451Z,102322.50
2023-05-08T07:34:07.238Z,102330.69
2023-05-08T07:36:33.741Z,102320.13
2023-05-08T07:39:00.133Z,102322.19
2023-05-08T07:41:26.568Z,102324.19
2023-05-08T07:43:53.275Z,102325.53
2023-05-08T07:46:19.764Z,102318.00
2023-05-08T07:48:46.285Z,102322.03
2023-05-08T07:51:13.391Z,102322.50
2023-05-08T07:53:39.753Z,102325.69
2023-05-08T07:56:06.518Z,102323.50
2023-05-08T07:58:32.924Z,102321.22
2023-05-08T08:00:59.326Z,102313.75
2023-05-08T08:03:25.741Z,102317.84
2023-05-08T08:05:52.183Z,102311.25
2023-05-08T08:08:18.614Z,102318.97
2023-05-08T08:10:44.973Z,102319.56
2023-05-08T08:13:11.374Z,102315.75
2023-05-08T08:15:37.770Z,102314.69
2023-05-08T08:18:04.166Z,102315.44
2023-05-08T08:20:30.515Z,102310.75
2023-05-08T08:22:56.863Z,102313.22
2023-05-08T08:25:23.303Z,102325.44
2023-05-08T08:27:49.732Z,102313.81
2023-05-08T08:30:18.275Z,102310.06
2023-05-08T08:32:45.919Z,102311.66
2023-05-08T08:35:13.383Z,102309.69
2023-05-08T08:37:40.034Z,102309.69
2023-05-08T08:40:07.211Z,102307.03
2023-05-08T08:42:33.849Z,102301.72
2023-05-08T08:45:01.178Z,102300.81
2023-05-08T08:47:29.499Z,102291.88
2023-05-08T08:49:58.899Z,102302.97
2023-05-08T08:53:07.442Z,102292.28
2023-05-08T08:55:37.259Z,102294.84
2023-05-08T08:58:43.744Z,102301.06
2023-05-08T09:01:16.144Z,102294.75
2023-05-08T09:03:42.681Z,102290.44
2023-05-08T09:06:09.661Z,102288.72
2023-05-08T09:08:37.364Z,102294.09
2023-05-08T09:11:03.900Z,102290.56
2023-05-08T09:13:30.532Z,102288.81
2023-05-08T09:16:00.815Z,102296.84
2023-05-08T09:18:27.208Z,102291.59
2023-05-08T09:20:53.699Z,102291.19
2023-05-08T09:23:20.423Z,102284.81
2023-05-08T09:25:48.776Z,102290.34
2023-05-08T09:28:23.957Z,102290.44
2023-05-08T09:30:54.086Z,102290.44
2023-05-08T09:33:22.975Z,102295.91
2023-05-08T09:35:49.680Z,102289.69
2023-05-08T09:38:32.058Z,102287.03
2023-05-08T09:41:15.550Z,102296.84
2023-05-08T09:44:00.770Z,102295.13
2023-05-08T09:46:27.514Z,102275.63
2023-05-08T09:48:56.514Z,102280.13
2023-05-08T09:51:24.156Z,102281.31
2023-05-08T09:53:53.004Z,102287.81
2023-05-08T09:56:39.341Z,102284.47
2023-05-08T09:59:23.264Z,102278.25
2023-05-08T10:01:49.908Z,102283.69
2023-05-08T10:04:16.550Z,102279.19
2023-05-08T10:06:43.140Z,102269.56
2023-05-08T10:09:18.210Z,102266.97
2023-05-08T10:11:52.413Z,102268.06
2023-05-08T10:14:20.418Z,102273.59
2023-05-08T10:16:49.239Z,102272.94
2023-05-08T10:19:17.149Z,102278.47
2023-05-08T10:21:47.395Z,102271.50
2023-05-08T10:24:21.672Z,102259.94
2023-05-08T10:27:09.788Z,102269.78
2023-05-08T10:29:45.520Z,102264.72
2023-05-08T10:32:14.358Z,102264.81
2023-05-08T10:34:41.784Z,102265.78
2023-05-08T10:37:12.538Z,102256.78
2023-05-08T10:39:40.596Z,102253.25
2023-05-08T10:42:07.316Z,102258.81
2023-05-08T10:44:34.314Z,102251.84
2023-05-08T10:47:12.018Z,102253.75
2023-05-08T10:50:00.352Z,102251.16
2023-05-08T10:52:54.869Z,102257.59
2023-05-08T10:55:32.156Z,102241.63
2023-05-08T10:58:02.171Z,102231.97
2023-05-08T11:00:51.775Z,102228.53
2023-05-08T11:03:31.448Z,102227.56
2023-05-08T11:06:00.332Z,102237.31
2023-05-08T11:08:28.975Z,102234.63
2023-05-08T11:10:58.305Z,102247.16
2023-05-08T11:13:34.314Z,102239.03
2023-05-08T11:16:00.998Z,102224.72
2023-05-08T11:18:41.776Z,102230.94
2023-05-08T11:21:20.980Z,102221.75
2023-05-08T11:23:56.234Z,102230.13
2023-05-08T11:26:39.664Z,102221.72
2023-05-08T11:29:16.692Z,102217.13
2023-05-08T11:31:50.361Z,102209.84
2023-05-08T11:34:48.628Z,102213.31
2023-05-08T11:37:24.213Z,102209.56
2023-05-08T11:39:51.015Z,102206.03
2023-05-08T11:42:29.538Z,102205.06
2023-05-08T11:45:06.517Z,102220.91
2023-05-08T11:47:39.024Z,102210.31
2023-05-08T11:50:06.491Z,102201.31
2023-05-08T11:52:35.744Z,102200.34
2023-05-08T11:55:07.418Z,102198.47
2023-05-08T11:57:34.096Z,102202.00
2023-05-08T12:00:05.614Z,102198.47
2023-05-08T12:02:47.519Z,102194.81
2023-05-08T12:05:14.108Z,102197.28
2023-05-08T12:07:44.775Z,102204.25
2023-05-08T12:10:11.519Z,102200.53
2023-05-08T12:12:42.205Z,102211.97
2023-05-08T12:15:10.208Z,102199.91
2023-05-08T12:17:36.834Z,102184.59
2023-05-08T12:20:15.250Z,102192.41
2023-05-08T12:22:43.227Z,102191.47
2023-05-08T12:25:11.798Z,102190.63
2023-05-08T12:27:38.462Z,102186.13
2023-05-08T12:30:09.248Z,102184.38
2023-05-08T12:32:37.726Z,102172.81
2023-05-08T12:35:06.201Z,102175.41
2023-05-08T12:37:32.549Z,102176.28
2023-05-08T12:39:58.927Z,102172.81
2023-05-08T12:42:53.093Z,102172.06
2023-05-08T12:45:24.831Z,102177.63
2023-05-08T12:47:53.582Z,102179.56
2023-05-08T12:50:21.744Z,102185.97
2023-05-08T12:52:51.297Z,102181.56
2023-05-08T12:55:26.473Z,102174.50
2023-05-08T12:58:14.281Z,102174.41
2023-05-08T13:00:41.804Z,102168.75
2023-05-08T13:03:09.921Z,102173.66
2023-05-08T13:05:38.164Z,102172.41
2023-05-08T13:08:07.344Z,102171.28
2023-05-08T13:10:46.430Z,102164.53
2023-05-08T13:13:14.566Z,102159.00
2023-05-08T13:15:41.078Z,102155.03
2023-05-08T13:18:07.808Z,102173.47
2023-05-08T13:20:35.022Z,102168.66
2023-05-08T13:23:01.801Z,102165.53
2023-05-08T13:25:28.200Z,102157.19
2023-05-08T13:27:54.580Z,102154.41
2023-05-08T13:30:22.099Z,102158.69
2023-05-08T13:32:49.605Z,102145.28
2023-05-08T13:35:17.358Z,102146.91
2023-05-08T13:37:44.424Z,102147.78
2023-05-08T13:40:12.034Z,102144.25
2023-05-08T13:42:38.656Z,102134.25
2023-05-08T13:45:06.614Z,102140.59
2023-05-08T13:47:33.710Z,102139.50
2023-05-08T13:50:00.314Z,102124.41
2023-05-08T13:52:30.698Z,102125.69
2023-05-08T13:54:58.005Z,102126.25
2023-05-08T13:57:24.801Z,102128.47
2023-05-08T13:59:51.194Z,102119.78
2023-05-08T14:02:17.825Z,102116.34
2023-05-08T14:04:44.431Z,102116.47
2023-05-08T14:07:10.850Z,102118.28
2023-05-08T14:09:37.232Z,102108.53
2023-05-08T14:12:03.675Z,102112.19
2023-05-08T14:14:31.335Z,102107.88
2023-05-08T14:16:58.798Z,102110.66
2023-05-08T14:19:25.243Z,102111.63
2023-05-08T14:21:52.008Z,102107.44
2023-05-08T14:24:18.438Z,102104.69
2023-05-08T14:26:44.992Z,102101.16
2023-05-08T14:29:11.508Z,102095.44
2023-05-08T14:31:37.899Z,102101.56
2023-05-08T14:34:04.649Z,102089.00
2023-05-08T14:36:31.275Z,102094.38
2023-05-08T14:38:57.775Z,102084.63
2023-05-08T14:41:30.831Z,102089.25
2023-05-08T14:43:58.221Z,102095.56
2023-05-08T14:46:24.912Z,102090.09
2023-05-08T14:48:51.730Z,102091.06
2023-05-08T14:51:19.292Z,102076.81
2023-05-08T14:53:46.464Z,102075.97
2023-05-08T14:56:16.170Z,102075.09
2023-05-08T14:58:42.638Z,102076.94
2023-05-08T15:01:08.975Z,102070.72
2023-05-08T15:03:35.506Z,102060.00
2023-05-08T15:06:02.004Z,102059.22
2023-05-08T15:08:28.397Z,102056.56
2023-05-08T15:10:54.780Z,102053.13
2023-05-08T15:13:21.170Z,102059.44
2023-05-08T15:15:47.575Z,102054.09
2023-05-08T15:18:13.928Z,102059.56
2023-05-08T15:20:40.400Z,102066.00
2023-05-08T15:23:07.083Z,102049.16
2023-05-08T15:25:33.519Z,102053.66
2023-05-08T15:28:00.787Z,102058.03
2023-05-08T15:30:27.637Z,102042.75
2023-05-08T15:32:54.103Z,102046.28
2023-05-08T15:35:20.570Z,102053.53
2023-05-08T15:37:46.945Z,102052.69
2023-05-08T15:40:13.571Z,102051.91
2023-05-08T15:42:39.964Z,102045.72
2023-05-08T15:45:06.753Z,102035.97
2023-05-08T15:47:33.274Z,102038.75
2023-05-08T15:49:59.762Z,102048.50
2023-05-08T15:52:26.104Z,102053.84
2023-05-08T15:54:52.480Z,102042.41
2023-05-08T15:57:18.915Z,102039.81
2023-05-08T15:59:45.266Z,102045.25
2023-05-08T16:02:11.651Z,102031.88
2023-05-08T16:04:38.116Z,102026.63
2023-05-08T16:07:04.470Z,102029.41
2023-05-08T16:09:31.465Z,102031.34
2023-05-08T16:11:57.825Z,102035.84
2023-05-08T16:14:24.228Z,102033.25
2023-05-08T16:16:50.664Z,102028.88
2023-05-08T16:19:17.148Z,102028.97
2023-05-08T16:21:47.472Z,102027.28
2023-05-08T16:24:14.322Z,102026.41
2023-05-08T16:26:40.840Z,102021.91
2023-05-08T16:29:07.349Z,102029.09
2023-05-08T16:31:33.831Z,102030.06
2023-05-08T16:34:00.345Z,102014.75
2023-05-08T16:36:27.499Z,102020.94
2023-05-08T16:38:53.941Z,102016.44
2023-05-08T16:41:21.127Z,102011.00
2023-05-08T16:43:47.555Z,102008.31
2023-05-08T16:46:13.983Z,102011.84
2023-05-08T16:48:40.390Z,101999.31
2023-05-08T16:51:07.920Z,102002.88
2023-05-08T16:53:34.271Z,101998.38
2023-05-08T16:56:00.614Z,102006.41
2023-05-08T16:58:27.729Z,102002.97
2023-05-08T17:00:54.131Z,101998.56
2023-05-08T17:03:20.650Z,102002.31
2023-05-08T17:05:47.119Z,102004.03
2023-05-08T17:08:13.546Z,101999.53
2023-05-08T17:10:41.156Z,102000.50
2023-05-08T17:13:07.615Z,102000.63
2023-05-08T17:15:34.179Z,102005.22
2023-05-08T17:18:00.692Z,102004.25
2023-05-08T17:20:27.074Z,102000.72
2023-05-08T17:22:54.086Z,102007.00
2023-05-08T17:25:22.332Z,101998.13
2023-05-08T17:27:48.807Z,102002.75
2023-05-08T17:30:16.924Z,101997.38
2023-05-08T17:32:43.537Z,102002.84
2023-05-08T17:35:10.285Z,102005.53
2023-05-08T17:37:36.678Z,102003.81
2023-05-08T17:40:03.665Z,102004.91
2023-05-08T17:42:30.137Z,102011.19
2023-05-08T17:44:56.526Z,102000.59
2023-05-08T17:47:22.941Z,102001.66
2023-05-08T17:49:49.313Z,102003.78
2023-05-08T17:52:15.784Z,102009.25
2023-05-08T17:54:42.207Z,102006.69
2023-05-08T17:57:08.567Z,102008.63
2023-05-08T17:59:34.927Z,102007.66
2023-05-08T18:02:01.338Z,102019.31
2023-05-08T18:04:27.948Z,102015.78
2023-05-08T18:06:54.429Z,102011.28
2023-05-08T18:09:21.005Z,102022.97
2023-05-08T18:11:47.402Z,102015.00
2023-05-08T18:14:13.818Z,102018.53
2023-05-08T18:16:40.216Z,102018.53
2023-05-08T18:19:06.655Z,102016.81
2023-05-08T18:21:33.037Z,102018.66
2023-05-08T18:23:59.467Z,102024.00
2023-05-08T18:26:25.834Z,102032.03
2023-05-08T18:28:52.265Z,102022.28
2023-05-08T18:31:18.657Z,102025.06
2023-05-08T18:33:45.051Z,102022.41
2023-05-08T18:36:11.469Z,102028.72
2023-05-08T18:38:38.073Z,102027.84
2023-05-08T18:41:05.165Z,102039.59
2023-05-08T18:43:31.587Z,102043.25
2023-05-08T18:46:00.134Z,102042.38
2023-05-08T18:48:27.095Z,102047.00
2023-05-08T18:50:55.683Z,102051.59
2023-05-08T18:53:22.066Z,102042.81
2023-05-08T18:55:48.572Z,102044.63
2023-05-08T18:58:14.958Z,102041.00
2023-05-08T19:00:41.394Z,102044.63
2023-05-08T19:03:07.869Z,102040.13
2023-05-08T19:05:34.431Z,102037.34
2023-05-08T19:08:00.808Z,102043.47
2023-05-08T19:10:27.246Z,102039.94
2023-05-08T19:12:53.628Z,102047.84
2023-05-08T19:15:20.019Z,102047.72
2023-05-08T19:17:46.430Z,102050.22
2023-05-08T19:20:13.567Z,102045.72
2023-05-08T19:22:40.247Z,102049.44
2023-05-08T19:25:06.796Z,102056.63
2023-05-08T19:27:33.155Z,102055.75
2023-05-08T19:29:59.505Z,102057.69
2023-05-08T19:32:25.970Z,102052.97
2023-05-08T19:34:52.429Z,102054.72
2023-05-08T19:37:18.776Z,102062.63
2023-05-08T19:39:45.128Z,102057.41
2023-05-08T19:42:13.740Z,102059.09
2023-05-08T19:44:40.301Z,102060.06
2023-05-08T19:47:07.013Z,102057.41
2023-05-08T19:49:33.579Z,102059.09
2023-05-08T19:51:59.923Z,102059.22
2023-05-08T19:54:26.272Z,102062.63
2023-05-08T19:56:52.639Z,102054.72
2023-05-08T19:59:19.017Z,102059.97
2023-05-08T20:01:45.560Z,102055.34
2023-05-08T20:04:12.038Z,102059.63
2023-05-08T20:06:39.202Z,102059.63
2023-05-08T20:09:06.213Z,102061.47
2023-05-08T20:11:32.756Z,102052.47
2023-05-08T20:13:59.107Z,102052.47
2023-05-08T20:16:25.509Z,102043.50
2023-05-08T20:18:53.742Z,102048.94
2023-05-08T20:21:20.649Z,102036.41
2023-05-08T20:23:47.030Z,102042.63
2023-05-08T20:26:13.508Z,102042.63
2023-05-08T20:28:39.901Z,102039.09
2023-05-08T20:31:06.469Z,102031.28
2023-05-08T20:33:32.914Z,102043.16
2023-05-08T20:35:59.282Z,102036.19
2023-05-08T20:38:25.622Z,102034.56
2023-05-08T20:40:54.176Z,102031.25
2023-05-08T20:43:22.792Z,102041.19
2023-05-08T20:45:49.401Z,102039.47
2023-05-08T20:48:15.830Z,102032.47
2023-05-08T20:50:42.206Z,102035.44
2023-05-08T20:53:08.708Z,102030.31
2023-05-08T20:55:35.100Z,102032.25
2023-05-08T20:58:01.828Z,102039.47
2023-05-08T21:00:28.272Z,102035.19
2023-05-08T21:02:54.702Z,102032.75
2023-05-08T21:05:21.116Z,102032.06
2023-05-08T21:07:47.521Z,102039.22
2023-05-08T21:10:14.207Z,102038.47
2023-05-08T21:12:40.838Z,102047.47
2023-05-08T21:15:07.881Z,102041.16
2023-05-08T21:17:34.294Z,102048.22
2023-05-08T21:20:00.767Z,102036.66
2023-05-08T21:22:27.125Z,102031.31
2023-05-08T21:24:53.552Z,102027.78
2023-05-08T21:27:19.956Z,102025.00
2023-05-08T21:29:46.421Z,102024.03
2023-05-08T21:32:12.834Z,102020.41
2023-05-08T21:34:39.208Z,102023.09
2023-05-08T21:37:05.561Z,102008.09
2023-05-08T21:39:31.926Z,102008.22
2023-05-08T21:41:58.306Z,102010.03
2023-05-08T21:44:24.709Z,102009.28
2023-05-08T21:46:51.266Z,102007.56
2023-05-08T21:49:17.761Z,102011.28
2023-05-08T21:51:45.588Z,102007.75
2023-05-08T21:54:11.965Z,102006.91
2023-05-08T21:56:38.821Z,102007.13
2023-05-08T21:59:05.277Z,101999.28
2023-05-08T22:01:32.308Z,102002.81
2023-05-08T22:03:58.834Z,102006.53
2023-05-08T22:06:25.254Z,101997.66
2023-05-08T22:08:51.611Z,101999.59
2023-05-08T22:11:18.026Z,101997.88
2023-05-08T22:13:44.380Z,102001.50
2023-05-08T22:16:10.761Z,101997.94
2023-05-08T22:18:37.414Z,101984.59
2023-05-08T22:21:04.019Z,101986.41
2023-05-08T22:23:30.436Z,101987.25
2023-05-08T22:25:56.788Z,101985.56
2023-05-08T22:28:23.167Z,101982.22
2023-05-08T22:30:49.545Z,101979.78
2023-05-08T22:33:15.894Z,101975.19
2023-05-08T22:35:42.274Z,101976.88
2023-05-08T22:38:08.680Z,101980.53
2023-05-08T22:40:35.254Z,101977.84
2023-05-08T22:43:01.757Z,101971.53
2023-05-08T22:45:28.278Z,101972.41
2023-05-08T22:47:55.173Z,101969.63
2023-05-08T22:50:21.817Z,101972.28
2023-05-08T22:52:48.210Z,101968.75
2023-05-08T22:55:15.728Z,101966.09
2023-05-08T22:57:42.520Z,101963.41
2023-05-08T23:00:09.347Z,101960.84
2023-05-08T23:02:35.840Z,101968.00
2023-05-08T23:05:02.356Z,101960.97
2023-05-08T23:07:29.450Z,101956.56
2023-05-08T23:09:55.969Z,101959.25
2023-05-08T23:12:22.322Z,101947.78
2023-05-08T23:14:48.702Z,101955.91
2023-05-08T23:17:15.368Z,101952.38
2023-05-08T23:19:42.427Z,101949.59
2023-05-08T23:22:09.285Z,101946.16
2023-05-08T23:24:36.375Z,101941.69
2023-05-08T23:27:02.830Z,101944.47
2023-05-08T23:29:29.434Z,101940.06
2023-05-08T23:31:55.776Z,101941.78
2023-05-08T23:34:22.141Z,101942.84
2023-05-08T23:36:48.494Z,101929.38
2023-05-08T23:39:14.920Z,101929.38
2023-05-08T23:41:41.313Z,101929.28
2023-05-08T23:44:07.747Z,101929.19
2023-05-08T23:46:34.131Z,101929.19
2023-05-08T23:49:00.694Z,101928.22
2023-05-08T23:51:27.076Z,101931.00
2023-05-08T23:53:53.430Z,101926.50
2023-05-08T23:56:19.787Z,101927.47
2023-05-08T23:58:46.160Z,101929.28
